createdAt,value
2022-08-21T00:00:29.207Z,1.63
2022-08-21T00:03:31.570Z,1.75
2022-08-21T00:06:33.964Z,1.60
2022-08-21T00:09:35.901Z,1.70
2022-08-21T00:12:38.386Z,1.50
2022-08-21T00:15:41.382Z,1.52
2022-08-21T00:18:44.689Z,1.75
2022-08-21T00:21:47.064Z,1.60
2022-08-21T00:24:49.370Z,1.90
2022-08-21T00:27:52.004Z,1.95
2022-08-21T00:30:54.374Z,1.92
2022-08-21T00:37:03.593Z,1.60
2022-08-21T00:40:10.647Z,1.65
2022-08-21T00:43:16.116Z,1.58
2022-08-21T00:46:18.743Z,1.92
2022-08-21T00:49:21.076Z,1.50
2022-08-21T00:52:27.852Z,1.58
2022-08-21T00:55:31.449Z,2.10
2022-08-21T00:58:36.467Z,2.00
2022-08-21T01:01:40.250Z,1.75
2022-08-21T01:04:42.627Z,2.42
2022-08-21T01:07:44.965Z,2.15
2022-08-21T01:10:47.626Z,2.08
2022-08-21T01:13:53.819Z,1.88
2022-08-21T01:16:56.981Z,1.90
2022-08-21T01:20:00.274Z,2.33
2022-08-21T01:23:03.236Z,2.47
2022-08-21T01:26:06.100Z,2.20
2022-08-21T01:29:31.907Z,2.10
2022-08-21T01:32:34.282Z,2.30
2022-08-21T01:38:38.569Z,1.77
2022-08-21T01:41:40.519Z,2.00
2022-08-21T01:44:42.967Z,2.03
2022-08-21T01:50:48.115Z,2.10
2022-08-21T01:53:54.787Z,1.98
2022-08-21T01:56:57.629Z,1.67
2022-08-21T02:00:00.135Z,2.50
2022-08-21T02:06:06.001Z,2.03
2022-08-21T02:09:09.702Z,2.08
2022-08-21T02:12:12.350Z,2.05
2022-08-21T02:15:14.463Z,1.67
2022-08-21T02:18:17.111Z,1.60
2022-08-21T02:21:19.954Z,2.40
2022-08-21T02:24:22.015Z,2.03
2022-08-21T02:27:27.262Z,1.85
2022-08-21T02:30:33.601Z,2.00
2022-08-21T02:33:35.767Z,2.50
2022-08-21T02:36:37.869Z,2.60
2022-08-21T02:39:40.366Z,2.83
2022-08-21T02:42:42.897Z,2.60
2022-08-21T02:48:48.096Z,2.72
2022-08-21T02:51:50.166Z,3.40
2022-08-21T02:54:52.695Z,3.00
2022-08-21T03:00:57.957Z,2.60
2022-08-21T03:07:02.896Z,2.78
2022-08-21T03:10:06.432Z,2.90
2022-08-21T03:13:09.137Z,2.30
2022-08-21T03:16:11.322Z,2.28
2022-08-21T03:19:13.435Z,2.53
2022-08-21T03:22:15.900Z,2.40
2022-08-21T03:28:22.973Z,2.47
2022-08-21T03:31:25.816Z,3.28
2022-08-21T03:34:28.284Z,2.20
2022-08-21T03:37:30.740Z,2.78
2022-08-21T03:43:35.440Z,3.87
2022-08-21T03:46:37.934Z,2.55
2022-08-21T03:49:40.516Z,2.65
2022-08-21T03:52:42.979Z,2.25
2022-08-21T03:58:48.545Z,2.05
2022-08-21T04:05:00.736Z,2.03
2022-08-21T04:11:07.343Z,2.22
2022-08-21T04:14:09.515Z,2.35
2022-08-21T04:17:11.985Z,2.15
2022-08-21T04:23:24.044Z,2.40
2022-08-21T04:26:27.225Z,2.40
2022-08-21T04:29:29.836Z,2.20
2022-08-21T04:32:32.343Z,2.38
2022-08-21T04:35:34.552Z,2.70
2022-08-21T04:38:37.747Z,2.75
2022-08-21T04:41:40.954Z,2.47
2022-08-21T04:47:52.706Z,1.87
2022-08-21T04:51:20.262Z,2.75
2022-08-21T04:54:23.536Z,2.78
2022-08-21T04:57:39.717Z,2.63
2022-08-21T05:00:49.023Z,2.60
2022-08-21T05:03:54.847Z,2.83
2022-08-21T05:06:59.350Z,3.40
2022-08-21T05:10:02.065Z,2.53
2022-08-21T05:13:04.670Z,2.72
2022-08-21T05:16:07.334Z,2.55
2022-08-21T05:19:09.874Z,2.78
2022-08-21T05:22:12.385Z,4.45
2022-08-21T05:25:14.902Z,3.22
2022-08-21T05:28:19.635Z,2.47
2022-08-21T05:31:22.170Z,2.28
2022-08-21T05:37:26.618Z,2.10
2022-08-21T05:40:29.124Z,2.75
2022-08-21T05:46:33.646Z,1.93
2022-08-21T05:52:38.426Z,1.92
2022-08-21T05:58:48.065Z,1.65
2022-08-21T06:01:50.602Z,1.80
2022-08-21T06:04:53.187Z,1.95
2022-08-21T06:07:55.670Z,1.88
2022-08-21T06:11:00.214Z,1.40
2022-08-21T06:14:02.698Z,1.58
2022-08-21T06:17:11.000Z,3.08
2022-08-21T06:20:13.459Z,1.30
2022-08-21T06:23:15.958Z,1.38
2022-08-21T06:26:18.438Z,1.30
2022-08-21T06:29:21.190Z,0.80
2022-08-21T06:32:23.644Z,0.63
2022-08-21T06:35:25.829Z,1.17
2022-08-21T06:38:28.312Z,1.65
2022-08-21T06:41:31.614Z,0.70
2022-08-21T06:44:41.173Z,1.10
2022-08-21T06:47:43.261Z,3.33
2022-08-21T06:50:45.792Z,1.23
2022-08-21T06:53:48.379Z,1.02
2022-08-21T06:56:51.357Z,1.48
2022-08-21T06:59:53.851Z,1.45
2022-08-21T07:02:56.385Z,1.95
2022-08-21T07:05:58.983Z,2.90
2022-08-21T07:09:01.448Z,4.50
2022-08-21T07:12:04.144Z,0.95
2022-08-21T07:15:07.006Z,0.70
2022-08-21T07:18:09.586Z,0.60
2022-08-21T07:21:12.418Z,0.70
2022-08-21T07:24:14.908Z,0.65
2022-08-21T07:27:17.824Z,0.43
2022-08-21T07:33:22.153Z,0.80
2022-08-21T07:36:24.742Z,0.63
2022-08-21T07:39:27.220Z,0.93
2022-08-21T07:42:29.722Z,0.70
2022-08-21T07:45:32.153Z,1.38
2022-08-21T07:48:34.778Z,0.60
2022-08-21T07:51:37.227Z,0.90
2022-08-21T07:57:41.939Z,0.70
2022-08-21T08:00:44.461Z,0.73
2022-08-21T08:03:47.290Z,0.60
2022-08-21T08:06:49.804Z,0.77
2022-08-21T08:09:51.883Z,0.60
2022-08-21T08:12:54.458Z,0.50
2022-08-21T08:15:57.012Z,0.77
2022-08-21T08:18:59.526Z,0.57
2022-08-21T08:22:02.000Z,0.70
2022-08-21T08:25:09.143Z,0.70
2022-08-21T08:28:16.585Z,0.32
2022-08-21T08:31:20.211Z,0.60
2022-08-21T08:34:25.070Z,0.75
2022-08-21T08:40:43.269Z,0.45
2022-08-21T08:43:57.763Z,0.50
2022-08-21T08:47:00.937Z,0.85
2022-08-21T08:50:06.722Z,0.63
2022-08-21T08:53:23.915Z,0.60
2022-08-21T08:56:32.601Z,0.38
2022-08-21T08:59:41.849Z,0.60
2022-08-21T09:02:47.429Z,0.50
2022-08-21T09:06:18.060Z,0.70
2022-08-21T09:09:29.157Z,0.57
2022-08-21T09:12:31.630Z,0.40
2022-08-21T09:15:52.138Z,0.60
2022-08-21T09:18:54.626Z,0.60
2022-08-21T09:22:12.332Z,0.88
2022-08-21T09:25:23.226Z,0.40
2022-08-21T09:28:26.682Z,0.40
2022-08-21T09:31:29.119Z,0.35
2022-08-21T09:34:32.359Z,0.52
2022-08-21T09:37:45.646Z,0.38
2022-08-21T09:41:01.259Z,0.60
2022-08-21T09:44:06.013Z,0.40
2022-08-21T09:47:09.485Z,0.30
2022-08-21T09:50:15.659Z,0.40
2022-08-21T09:53:25.024Z,0.68
2022-08-21T09:56:34.076Z,0.30
2022-08-21T09:59:37.433Z,0.43
2022-08-21T10:02:39.947Z,0.30
2022-08-21T10:05:53.791Z,0.40
2022-08-21T10:09:21.382Z,0.50
2022-08-21T10:12:32.015Z,0.30
2022-08-21T10:15:40.762Z,0.40
2022-08-21T10:18:51.292Z,0.50
2022-08-21T10:22:15.210Z,0.52
2022-08-21T10:25:17.676Z,0.50
2022-08-21T10:28:55.597Z,0.30
2022-08-21T10:32:01.154Z,0.40
2022-08-21T10:35:22.137Z,0.50
2022-08-21T10:39:17.703Z,0.60
2022-08-21T10:42:30.193Z,0.55
2022-08-21T10:46:31.136Z,0.50
2022-08-21T10:49:36.928Z,0.93
2022-08-21T10:52:45.361Z,0.70
2022-08-21T10:55:53.930Z,1.30
2022-08-21T10:59:12.708Z,0.65
2022-08-21T11:02:47.718Z,0.80
2022-08-21T11:05:54.542Z,0.73
2022-08-21T11:09:00.407Z,0.88
2022-08-21T11:12:37.017Z,1.10
2022-08-21T11:15:53.888Z,0.88
2022-08-21T11:19:16.694Z,1.02
2022-08-21T11:22:22.226Z,0.80
2022-08-21T11:25:33.721Z,0.80
2022-08-21T11:29:05.248Z,1.00
2022-08-21T11:32:25.932Z,0.70
2022-08-21T11:35:53.732Z,0.93
2022-08-21T11:39:17.751Z,1.00
2022-08-21T11:42:35.501Z,0.98
2022-08-21T11:45:44.576Z,0.95
2022-08-21T11:49:02.478Z,1.00
2022-08-21T11:52:21.914Z,0.93
2022-08-21T11:55:37.691Z,1.30
2022-08-21T11:58:51.926Z,1.30
2022-08-21T12:01:55.958Z,1.05
2022-08-21T12:05:08.723Z,1.50
2022-08-21T12:08:12.112Z,1.00
2022-08-21T12:11:14.573Z,1.20
2022-08-21T12:14:19.468Z,0.85
2022-08-21T12:17:36.113Z,0.93
2022-08-21T12:20:58.227Z,0.80
2022-08-21T12:24:15.922Z,1.00
2022-08-21T12:27:18.377Z,1.10
2022-08-21T12:30:35.844Z,1.05
2022-08-21T12:33:41.937Z,0.68
2022-08-21T12:36:54.627Z,0.80
2022-08-21T12:40:01.923Z,0.98
2022-08-21T12:43:06.307Z,1.13
2022-08-21T12:46:08.931Z,0.73
2022-08-21T12:49:28.756Z,0.80
2022-08-21T12:52:40.767Z,0.73
2022-08-21T12:55:43.956Z,0.75
2022-08-21T12:58:51.685Z,0.80
2022-08-21T13:01:54.976Z,0.70
2022-08-21T13:04:57.589Z,0.75
2022-08-21T13:08:04.626Z,0.60
2022-08-21T13:11:13.690Z,0.60
2022-08-21T13:14:26.985Z,0.77
2022-08-21T13:17:33.128Z,0.90
2022-08-21T13:20:40.515Z,0.77
2022-08-21T13:23:43.069Z,0.80
2022-08-21T13:26:49.316Z,0.50
2022-08-21T13:30:07.242Z,0.73
2022-08-21T13:33:13.084Z,0.65
2022-08-21T13:36:18.967Z,0.70
2022-08-21T13:39:21.853Z,0.85
2022-08-21T13:42:24.348Z,0.70
2022-08-21T13:45:31.300Z,0.75
2022-08-21T13:48:35.798Z,1.00
2022-08-21T13:51:38.708Z,0.70
2022-08-21T13:54:43.121Z,0.77
2022-08-21T13:57:45.340Z,0.68
2022-08-21T14:00:51.703Z,0.50
2022-08-21T14:03:57.847Z,0.98
2022-08-21T14:07:00.468Z,0.60
2022-08-21T14:10:12.400Z,0.57
2022-08-21T14:13:38.751Z,0.60
2022-08-21T14:17:11.177Z,1.10
2022-08-21T14:20:34.873Z,0.40
2022-08-21T14:23:37.373Z,0.40
2022-08-21T14:26:53.242Z,0.30
2022-08-21T14:30:01.642Z,0.35
2022-08-21T14:33:06.074Z,0.40
2022-08-21T14:36:08.685Z,0.30
2022-08-21T14:39:11.177Z,0.30
2022-08-21T14:42:14.318Z,0.10
2022-08-21T14:45:25.785Z,0.43
2022-08-21T14:48:30.045Z,0.20
2022-08-21T14:51:32.194Z,0.17
2022-08-21T14:54:34.824Z,0.30
2022-08-21T14:57:37.342Z,0.35
2022-08-21T15:06:43.886Z,0.45
2022-08-21T15:09:46.438Z,0.20
2022-08-21T15:12:48.955Z,0.60
2022-08-21T15:15:52.484Z,0.20
2022-08-21T15:18:55.272Z,0.40
2022-08-21T15:21:57.749Z,0.40
2022-08-21T15:25:00.437Z,0.70
2022-08-21T15:28:04.581Z,0.10
2022-08-21T15:31:07.318Z,0.55
2022-08-21T15:34:09.793Z,0.40
2022-08-21T15:37:12.253Z,0.22
2022-08-21T15:40:15.191Z,0.28
2022-08-21T15:43:29.910Z,0.60
2022-08-21T15:46:33.217Z,0.20
2022-08-21T15:49:35.697Z,0.20
2022-08-21T15:52:38.094Z,0.20
2022-08-21T15:58:42.683Z,0.20
2022-08-21T16:01:45.920Z,0.20
2022-08-21T16:04:48.422Z,0.40
2022-08-21T16:07:51.725Z,0.20
2022-08-21T16:10:54.262Z,0.50
2022-08-21T16:13:57.107Z,1.25
2022-08-21T16:16:59.725Z,0.30
2022-08-21T16:20:04.115Z,0.63
2022-08-21T16:23:06.845Z,0.40
2022-08-21T16:26:12.032Z,0.47
2022-08-21T16:29:20.940Z,0.40
2022-08-21T16:32:23.914Z,0.40
2022-08-21T16:35:32.023Z,0.28
2022-08-21T16:38:35.296Z,0.30
2022-08-21T16:41:39.994Z,0.52
2022-08-21T16:44:43.567Z,0.43
2022-08-21T16:47:51.293Z,0.50
2022-08-21T16:50:53.834Z,0.50
2022-08-21T16:56:59.163Z,0.30
2022-08-21T17:00:02.277Z,0.40
2022-08-21T17:03:04.830Z,0.47
2022-08-21T17:06:08.027Z,1.25
2022-08-21T17:09:10.633Z,0.63
2022-08-21T17:12:13.189Z,0.43
2022-08-21T17:15:21.675Z,0.50
2022-08-21T17:18:25.523Z,0.40
2022-08-21T17:21:27.979Z,0.50
2022-08-21T17:27:32.494Z,0.40
2022-08-21T17:33:42.044Z,0.60
2022-08-21T17:36:44.540Z,0.70
2022-08-21T17:42:49.698Z,0.70
2022-08-21T17:45:51.944Z,0.77
2022-08-21T17:48:54.898Z,0.50
2022-08-21T17:51:57.382Z,0.60
2022-08-21T17:58:02.330Z,1.00
2022-08-21T18:01:05.211Z,0.95
2022-08-21T18:04:07.756Z,0.70
2022-08-21T18:07:10.251Z,0.88
2022-08-21T18:10:18.281Z,1.20
2022-08-21T18:13:27.331Z,1.13
2022-08-21T18:16:31.511Z,1.45
2022-08-21T18:19:34.014Z,0.88
2022-08-21T18:22:44.234Z,1.30
2022-08-21T18:28:51.431Z,1.67
2022-08-21T18:35:16.750Z,1.15
2022-08-21T18:38:39.138Z,1.55
2022-08-21T18:42:03.887Z,1.20
2022-08-21T18:45:26.176Z,1.73
2022-08-21T18:51:31.488Z,1.67
2022-08-21T18:54:34.177Z,1.80
2022-08-21T18:57:40.616Z,2.13
2022-08-21T19:00:48.304Z,1.92
2022-08-21T19:03:53.185Z,2.50
2022-08-21T19:06:55.844Z,2.40
2022-08-21T19:16:25.518Z,2.08
2022-08-21T19:19:28.522Z,2.20
2022-08-21T19:22:33.363Z,1.88
2022-08-21T19:25:37.052Z,1.90
2022-08-21T19:28:45.287Z,2.10
2022-08-21T19:31:48.351Z,2.78
2022-08-21T19:34:51.120Z,2.20
2022-08-21T19:37:53.661Z,2.10
2022-08-21T19:40:56.871Z,2.28
2022-08-21T19:44:02.787Z,1.92
2022-08-21T19:47:12.960Z,2.60
2022-08-21T19:50:21.685Z,2.60
2022-08-21T19:53:24.359Z,2.42
2022-08-21T19:56:29.343Z,2.67
2022-08-21T19:59:31.674Z,2.00
2022-08-21T20:02:34.343Z,2.40
2022-08-21T20:05:39.800Z,2.22
2022-08-21T20:08:43.326Z,2.05
2022-08-21T20:11:55.370Z,2.10
2022-08-21T20:14:57.967Z,2.25
2022-08-21T20:18:01.694Z,2.10
2022-08-21T20:21:05.409Z,2.28
2022-08-21T20:24:08.311Z,2.00
2022-08-21T20:27:16.496Z,2.20
2022-08-21T20:30:22.852Z,1.77
2022-08-21T20:33:25.470Z,2.03
2022-08-21T20:36:29.221Z,1.88
2022-08-21T20:42:33.799Z,2.13
2022-08-21T20:45:36.358Z,2.88
2022-08-21T20:51:53.210Z,2.60
2022-08-21T20:55:02.354Z,2.28
2022-08-21T21:01:33.354Z,2.60
2022-08-21T21:05:13.309Z,2.50
2022-08-21T21:08:27.164Z,2.67
2022-08-21T21:11:44.013Z,2.38
2022-08-21T21:14:51.468Z,1.98
2022-08-21T21:17:59.854Z,1.95
2022-08-21T21:21:16.803Z,1.55
2022-08-21T21:24:29.019Z,2.05
2022-08-21T21:27:41.514Z,2.00
2022-08-21T21:30:47.065Z,1.80
2022-08-21T21:33:57.932Z,2.47
2022-08-21T21:37:08.505Z,2.78
2022-08-21T21:40:10.921Z,2.65
2022-08-21T21:46:18.012Z,2.50
2022-08-21T21:49:50.910Z,3.17
2022-08-21T21:59:29.766Z,2.83
2022-08-21T22:03:07.909Z,2.75
2022-08-21T22:06:28.676Z,2.92
2022-08-21T22:09:30.969Z,2.85
2022-08-21T22:12:55.843Z,2.80
2022-08-21T22:15:58.179Z,2.55
2022-08-21T22:19:15.545Z,3.00
2022-08-21T22:22:21.338Z,4.00
2022-08-21T22:25:33.264Z,3.55
2022-08-21T22:28:42.240Z,4.35
2022-08-21T22:32:05.861Z,3.60
2022-08-21T22:35:16.843Z,3.63
2022-08-21T22:38:27.578Z,3.42
2022-08-21T22:41:31.998Z,4.50
2022-08-21T22:44:51.783Z,4.63
2022-08-21T22:47:54.505Z,3.67
2022-08-21T22:51:05.171Z,4.00
2022-08-21T22:57:35.240Z,3.95
2022-08-21T23:00:57.385Z,4.35
2022-08-21T23:07:11.952Z,4.00
2022-08-21T23:10:20.448Z,3.72
2022-08-21T23:13:22.362Z,3.80
2022-08-21T23:16:54.556Z,4.18
2022-08-21T23:20:11.850Z,4.10
2022-08-21T23:23:26.937Z,4.75
2022-08-21T23:26:37.777Z,4.13
2022-08-21T23:30:01.989Z,4.47
2022-08-21T23:33:10.916Z,4.50
2022-08-21T23:36:25.978Z,4.32
2022-08-21T23:40:09.249Z,4.35
2022-08-21T23:43:13.649Z,6.10
2022-08-21T23:46:50.218Z,6.10
2022-08-21T23:50:14.103Z,4.72
2022-08-21T23:53:54.401Z,4.00
2022-08-21T23:57:08.807Z,4.18
